Time;durP1;ratioP1;P1;durP2;ratioP2;P2;SDS_P1;SDS_P2;PMS_P1;PMS_P2;Temp;Humidity;BMP_temperature;BMP_pressure;BME280_temperature;BME280_humidity;BME280_pressure;Samples;Min_cycle;Max_cycle;Signal;HPM_P1;HPM_P2
2021/11/05 00:01:55;;;;;;;2.50;2.30;;;8.10;99.90;;;;;;5073438;28;20542;-77
2021/11/05 00:04:21;;;;;;;3.43;3.20;;;8.20;99.90;;;;;;5073507;28;20501;-77
2021/11/05 00:06:49;;;;;;;3.63;2.63;;;8.10;99.90;;;;;;5073233;28;20541;-77
2021/11/05 00:09:16;;;;;;;2.80;2.60;;;8.20;99.90;;;;;;5073142;28;20489;-77
2021/11/05 00:11:42;;;;;;;2.77;2.37;;;8.20;99.90;;;;;;5073023;28;20546;-77
2021/11/05 00:14:09;;;;;;;2.90;2.70;;;8.20;99.90;;;;;;5073167;28;20490;-77
2021/11/05 00:16:35;;;;;;;1.97;1.87;;;8.20;99.90;;;;;;5073196;28;20490;-77
2021/11/05 00:19:02;;;;;;;2.60;2.40;;;8.20;99.90;;;;;;5072982;28;20923;-77
2021/11/05 00:21:28;;;;;;;3.53;2.67;;;8.20;99.90;;;;;;5072332;28;21014;-77
2021/11/05 00:23:57;;;;;;;2.13;1.93;;;8.10;99.90;;;;;;5072979;28;20547;-77
2021/11/05 00:26:23;;;;;;;2.33;2.13;;;8.10;99.90;;;;;;5072790;28;20815;-78
2021/11/05 00:28:50;;;;;;;2.03;1.90;;;8.10;99.90;;;;;;5073056;28;20859;-77
2021/11/05 00:31:17;;;;;;;2.30;2.10;;;8.10;99.90;;;;;;5072961;28;20860;-78
2021/11/05 00:33:43;;;;;;;2.00;1.90;;;8.10;99.90;;;;;;5072981;28;20538;-78
2021/11/05 00:36:13;;;;;;;2.10;2.00;;;8.00;99.90;;;;;;5072746;28;20479;-78
2021/11/05 00:38:40;;;;;;;1.77;1.67;;;8.00;99.90;;;;;;5072776;28;20479;-78
2021/11/05 00:41:08;;;;;;;1.97;1.80;;;8.00;99.90;;;;;;5072963;28;20542;-79
2021/11/05 00:43:35;;;;;;;4.20;2.10;;;8.00;99.90;;;;;;5082040;28;20450;-79
2021/11/05 00:46:02;;;;;;;1.90;1.80;;;8.00;99.90;;;;;;5092950;28;20541;-79
2021/11/05 00:48:28;;;;;;;1.88;1.77;;;7.90;99.90;;;;;;5092818;28;20446;-79
2021/11/05 00:50:55;;;;;;;1.60;1.50;;;7.90;99.90;;;;;;5092768;28;20193;-79
2021/11/05 00:53:21;;;;;;;2.30;2.10;;;7.90;99.90;;;;;;5092913;28;20274;-79
2021/11/05 00:55:48;;;;;;;2.13;1.70;;;7.80;99.90;;;;;;5092933;28;20890;-78
2021/11/05 00:58:16;;;;;;;1.80;1.70;;;7.80;99.90;;;;;;5092756;28;20482;-79
2021/11/05 01:00:43;;;;;;;1.90;1.80;;;7.80;99.90;;;;;;5092924;28;20485;-79
2021/11/05 01:03:10;;;;;;;1.50;1.40;;;7.80;99.90;;;;;;5092834;28;20473;-79
2021/11/05 01:05:37;;;;;;;1.40;1.30;;;7.80;99.90;;;;;;5093204;28;20220;-79
2021/11/05 01:08:04;;;;;;;2.10;2.00;;;7.80;99.90;;;;;;5093124;28;20988;-79
2021/11/05 01:10:31;;;;;;;1.63;1.50;;;7.80;99.90;;;;;;5092674;28;20941;-78
2021/11/05 01:12:57;;;;;;;2.60;1.70;;;7.80;99.90;;;;;;5092908;28;20188;-79
2021/11/05 01:15:25;;;;;;;1.70;1.60;;;7.80;99.90;;;;;;5092883;28;20482;-79
2021/11/05 01:17:51;;;;;;;1.50;1.40;;;7.80;99.90;;;;;;5092571;28;20557;-79
2021/11/05 01:20:19;;;;;;;1.40;1.30;;;7.80;99.90;;;;;;5092877;28;20565;-79
2021/11/05 01:22:46;;;;;;;1.87;1.50;;;7.80;99.90;;;;;;5092822;28;20569;-79
2021/11/05 01:25:14;;;;;;;1.77;1.57;;;7.80;99.90;;;;;;5092515;28;20446;-79
2021/11/05 01:27:41;;;;;;;1.50;1.40;;;7.80;99.90;;;;;;5092769;28;20533;-79
2021/11/05 01:30:08;;;;;;;3.33;1.33;;;7.80;99.90;;;;;;5093144;28;20193;-78
2021/11/05 01:32:37;;;;;;;3.40;1.53;;;7.80;99.90;;;;;;5095327;28;20504;-78
2021/11/05 01:35:04;;;;;;;1.30;1.20;;;7.80;99.90;;;;;;5096707;28;20453;-78
2021/11/05 01:37:31;;;;;;;1.70;1.60;;;7.80;99.90;;;;;;5096651;28;20481;-78
2021/11/05 01:39:58;;;;;;;1.70;1.60;;;7.80;99.90;;;;;;5096334;28;20517;-78
2021/11/05 01:42:25;;;;;;;1.30;1.20;;;7.80;99.90;;;;;;5092606;28;20529;-78
2021/11/05 01:44:51;;;;;;;2.70;1.50;;;7.80;99.90;;;;;;5075865;28;20713;-79
2021/11/05 01:47:18;;;;;;;3.13;1.50;;;7.80;99.90;;;;;;5076038;28;20867;-79
2021/11/05 01:49:46;;;;;;;1.60;1.50;;;7.80;99.90;;;;;;5075877;28;20550;-79
2021/11/05 01:52:14;;;;;;;1.80;1.70;;;7.80;99.90;;;;;;5075958;28;20487;-77
2021/11/05 01:54:40;;;;;;;1.60;1.50;;;7.80;99.90;;;;;;5075759;28;20580;-78
2021/11/05 01:57:08;;;;;;;1.75;1.65;;;7.80;99.90;;;;;;5075633;28;20539;-78
2021/11/05 01:59:37;;;;;;;1.80;1.40;;;7.80;99.90;;;;;;5075405;28;20645;-77
2021/11/05 02:02:06;;;;;;;2.03;1.93;;;7.80;99.90;;;;;;5075855;28;20859;-78
2021/11/05 02:04:33;;;;;;;1.70;1.60;;;7.80;99.90;;;;;;5075694;28;20538;-79
2021/11/05 02:07:02;;;;;;;1.70;1.60;;;7.90;99.90;;;;;;5075611;28;20504;-78
2021/11/05 02:09:30;;;;;;;2.80;1.90;;;7.80;99.90;;;;;;5075500;28;20887;-79
2021/11/05 02:11:59;;;;;;;2.10;1.80;;;7.80;99.90;;;;;;5075396;28;20460;-79
2021/11/05 02:14:28;;;;;;;2.00;1.80;;;7.90;99.90;;;;;;5075373;28;20997;-80
2021/11/05 02:16:56;;;;;;;1.93;1.83;;;7.90;99.90;;;;;;5075444;28;20486;-79
2021/11/05 02:19:25;;;;;;;3.50;1.90;;;7.90;99.90;;;;;;5075427;28;20573;-78
2021/11/05 02:21:55;;;;;;;2.30;2.10;;;7.80;99.90;;;;;;5075197;28;21017;-78
2021/11/05 02:24:23;;;;;;;1.90;1.70;;;7.90;99.90;;;;;;5075151;28;20538;-78
2021/11/05 02:26:50;;;;;;;1.80;1.70;;;7.90;99.90;;;;;;5074970;28;20562;-77
2021/11/05 02:29:18;;;;;;;1.97;1.73;;;7.90;99.90;;;;;;5075139;28;20444;-78
2021/11/05 02:31:45;;;;;;;2.17;1.60;;;7.80;99.90;;;;;;5075240;28;20849;-78
2021/11/05 02:34:12;;;;;;;2.80;1.50;;;7.90;99.90;;;;;;5074957;28;20534;-78
2021/11/05 02:36:41;;;;;;;2.60;1.70;;;7.90;99.90;;;;;;5075128;28;20688;-79
2021/11/05 02:39:09;;;;;;;1.58;1.48;;;7.90;99.90;;;;;;5074914;28;20566;-79
2021/11/05 02:41:36;;;;;;;1.63;1.53;;;7.80;99.90;;;;;;5075016;28;20194;-80
2021/11/05 02:44:04;;;;;;;1.67;1.57;;;7.90;99.90;;;;;;5074275;28;20988;-78
2021/11/05 02:46:31;;;;;;;1.70;1.60;;;7.90;99.90;;;;;;5074763;28;20542;-78
2021/11/05 02:48:59;;;;;;;2.43;1.63;;;7.80;99.90;;;;;;5074816;28;20443;-78
2021/11/05 02:51:26;;;;;;;1.70;1.60;;;7.80;99.90;;;;;;5074752;28;20455;-78
2021/11/05 02:53:53;;;;;;;2.23;1.67;;;7.80;99.90;;;;;;5074593;28;20444;-78
2021/11/05 02:56:21;;;;;;;1.97;1.57;;;7.80;99.90;;;;;;5073945;28;20451;-79
2021/11/05 02:58:48;;;;;;;1.90;1.80;;;7.80;99.90;;;;;;5074285;28;20525;-79
2021/11/05 03:01:15;;;;;;;1.97;1.87;;;7.80;99.90;;;;;;5074491;28;20193;-79
2021/11/05 03:03:42;;;;;;;2.40;2.10;;;7.80;99.90;;;;;;5074349;28;20494;-79
2021/11/05 03:06:09;;;;;;;1.80;1.70;;;7.80;99.90;;;;;;5074185;28;20451;-79
2021/11/05 03:08:35;;;;;;;2.67;2.33;;;7.80;99.90;;;;;;5074745;28;20483;-79
2021/11/05 03:11:02;;;;;;;3.20;2.00;;;8.00;99.90;;;;;;5074277;28;20448;-79
2021/11/05 03:13:30;;;;;;;1.93;1.83;;;7.90;99.90;;;;;;5074342;28;20551;-79
2021/11/05 03:15:57;;;;;;;2.37;2.20;;;7.90;99.90;;;;;;5074122;28;20857;-79
2021/11/05 03:18:30;;;;;;;3.00;2.80;;;7.90;99.90;;;;;;5074341;28;20478;-79
2021/11/05 03:20:57;;;;;;;2.63;2.43;;;8.00;99.90;;;;;;5074108;28;20534;-79
2021/11/05 03:23:23;;;;;;;2.87;2.30;;;8.00;99.90;;;;;;5073172;28;20491;-78
2021/11/05 03:25:50;;;;;;;3.13;2.30;;;8.00;99.90;;;;;;5072522;28;21091;-79
2021/11/05 03:28:16;;;;;;;2.70;2.50;;;8.00;99.90;;;;;;5072737;28;20542;-79
2021/11/05 03:30:44;;;;;;;2.90;2.70;;;8.00;99.90;;;;;;5072782;28;20938;-79
2021/11/05 03:33:11;;;;;;;4.20;3.50;;;8.00;99.90;;;;;;5073580;28;20479;-79
2021/11/05 03:35:38;;;;;;;3.77;2.63;;;8.00;99.90;;;;;;5073884;28;20555;-79
2021/11/05 03:38:04;;;;;;;3.10;2.90;;;8.00;99.90;;;;;;5073748;28;20968;-78
2021/11/05 03:40:32;;;;;;;3.70;2.60;;;8.10;99.90;;;;;;5073684;28;20894;-79
2021/11/05 03:42:59;;;;;;;4.03;3.10;;;8.10;99.90;;;;;;5073664;28;20517;-79
2021/11/05 03:45:26;;;;;;;3.43;3.13;;;8.10;99.90;;;;;;5073729;28;20570;-79
2021/11/05 03:47:53;;;;;;;3.40;3.10;;;8.20;99.90;;;;;;5073471;28;20459;-79
2021/11/05 03:50:20;;;;;;;3.30;3.00;;;8.20;99.90;;;;;;5073604;28;20479;-80
2021/11/05 03:52:47;;;;;;;3.37;3.07;;;8.20;99.90;;;;;;5073581;28;20538;-80
2021/11/05 03:55:14;;;;;;;5.00;3.83;;;8.20;99.90;;;;;;5072377;28;20555;-80
2021/11/05 03:57:40;;;;;;;3.50;3.20;;;8.20;99.90;;;;;;5073568;28;20539;-79
2021/11/05 04:00:09;;;;;;;3.93;3.50;;;8.20;99.90;;;;;;5073192;28;20479;-79
2021/11/05 04:02:36;;;;;;;3.27;3.00;;;8.20;99.90;;;;;;5073376;28;20455;-78
2021/11/05 04:05:04;;;;;;;4.17;3.63;;;8.20;99.90;;;;;;5073437;28;20825;-78
2021/11/05 04:07:30;;;;;;;4.57;4.13;;;8.20;99.90;;;;;;5073259;28;20451;-78
2021/11/05 04:09:57;;;;;;;4.03;3.73;;;8.20;99.90;;;;;;5073366;28;20542;-79
2021/11/05 04:12:23;;;;;;;3.80;3.50;;;8.30;99.90;;;;;;5073091;28;20542;-78
2021/11/05 04:14:50;;;;;;;5.30;4.80;;;8.30;99.90;;;;;;5072955;28;20497;-78
2021/11/05 04:17:17;;;;;;;4.73;4.37;;;8.30;99.90;;;;;;5073154;28;20881;-78
2021/11/05 04:19:44;;;;;;;4.60;4.20;;;8.30;99.90;;;;;;5072922;28;20991;-79
2021/11/05 04:22:14;;;;;;;4.07;3.87;;;8.30;99.90;;;;;;5072752;28;21022;-79
2021/11/05 04:24:41;;;;;;;4.80;4.40;;;8.30;99.90;;;;;;5073067;28;21053;-79
2021/11/05 04:27:08;;;;;;;4.77;3.60;;;8.30;99.90;;;;;;5072821;28;20506;-78
2021/11/05 04:29:35;;;;;;;5.63;4.67;;;8.30;99.90;;;;;;5072981;28;20454;-79
2021/11/05 04:32:02;;;;;;;5.00;4.50;;;8.30;99.90;;;;;;5072908;28;20462;-80
2021/11/05 04:34:29;;;;;;;4.97;4.53;;;8.30;99.90;;;;;;5073044;28;20490;-79
2021/11/05 04:36:55;;;;;;;4.90;4.43;;;8.30;99.90;;;;;;5072840;28;20452;-80
2021/11/05 04:39:24;;;;;;;6.27;5.77;;;8.30;99.90;;;;;;5072736;28;20475;-80
2021/11/05 04:41:52;;;;;;;6.60;6.00;;;8.30;99.90;;;;;;5072683;28;20447;-80
2021/11/05 04:44:19;;;;;;;5.47;5.07;;;8.40;99.90;;;;;;5072916;28;20803;-80
2021/11/05 04:46:46;;;;;;;6.43;5.70;;;8.40;99.90;;;;;;5072779;28;20478;-80
2021/11/05 04:49:13;;;;;;;6.13;5.63;;;8.40;99.90;;;;;;5072886;28;20518;-79
2021/11/05 04:51:40;;;;;;;7.57;6.40;;;8.40;99.90;;;;;;5072615;28;20450;-79
2021/11/05 04:54:07;;;;;;;6.57;5.97;;;8.40;99.90;;;;;;5072684;28;21030;-79
2021/11/05 04:56:35;;;;;;;7.53;6.27;;;8.40;99.90;;;;;;5072516;28;20447;-79
2021/11/05 04:59:02;;;;;;;9.33;7.00;;;8.40;99.90;;;;;;5072687;28;20503;-78
2021/11/05 05:01:28;;;;;;;8.10;6.90;;;8.40;99.90;;;;;;5072472;28;21021;-80
2021/11/05 05:03:55;;;;;;;9.20;8.13;;;8.40;99.90;;;;;;5072645;28;20456;-81
2021/11/05 05:06:21;;;;;;;10.90;8.27;;;8.40;99.90;;;;;;5073150;28;20478;-80
2021/11/05 05:08:48;;;;;;;10.10;9.10;;;8.50;99.90;;;;;;5076277;28;20534;-81
2021/11/05 05:11:14;;;;;;;10.00;9.00;;;8.50;99.90;;;;;;5076348;28;20534;-79
2021/11/05 05:13:42;;;;;;;10.33;8.73;;;8.50;99.90;;;;;;5076591;28;20483;-80
2021/11/05 05:16:09;;;;;;;11.20;9.23;;;8.50;99.90;;;;;;5076324;28;20542;-79
2021/11/05 05:18:35;;;;;;;12.00;10.33;;;8.50;99.90;;;;;;5076445;28;20539;-85
2021/11/05 05:21:02;;;;;;;10.40;9.30;;;8.50;99.90;;;;;;5076433;28;20514;-84
2021/11/05 05:23:29;;;;;;;14.73;9.37;;;8.50;99.90;;;;;;5076403;28;20475;-84
2021/11/05 05:25:55;;;;;;;12.00;10.63;;;8.80;99.90;;;;;;5076655;28;20475;-83
2021/11/05 05:28:22;;;;;;;12.37;10.93;;;8.50;99.90;;;;;;5076900;28;20479;-86
2021/11/05 05:30:53;;;;;;;13.47;11.60;;;8.60;99.90;;;;;;5074263;28;20455;-82
2021/11/05 05:33:20;;;;;;;14.30;12.40;;;8.50;99.90;;;;;;5073899;28;20457;-80
2021/11/05 05:35:46;;;;;;;13.43;12.03;;;8.50;99.90;;;;;;5075997;28;20462;-81
2021/11/05 05:38:13;;;;;;;16.80;12.23;;;8.50;99.90;;;;;;5075646;28;20479;-80
2021/11/05 05:40:40;;;;;;;15.97;12.50;;;8.50;99.90;;;;;;5075660;28;21084;-80
2021/11/05 05:43:06;;;;;;;17.07;12.70;;;8.50;99.90;;;;;;5075780;28;20448;-80
2021/11/05 05:45:33;;;;;;;19.43;14.70;;;8.60;99.90;;;;;;5075997;28;20870;-80
2021/11/05 05:48:01;;;;;;;18.70;14.20;;;8.60;99.90;;;;;;5075787;28;20455;-80
2021/11/05 05:50:28;;;;;;;17.93;13.70;;;8.60;99.90;;;;;;5075747;28;20458;-80
2021/11/05 05:52:55;;;;;;;18.73;14.17;;;8.60;99.90;;;;;;5075567;28;20483;-80
2021/11/05 05:55:24;;;;;;;17.70;13.37;;;8.70;99.90;;;;;;5075681;28;20451;-80
2021/11/05 05:57:51;;;;;;;16.20;12.90;;;8.60;99.90;;;;;;5075651;28;20458;-81
2021/11/05 06:00:18;;;;;;;22.30;13.70;;;8.70;99.90;;;;;;5075560;28;20519;-81
2021/11/05 06:02:45;;;;;;;16.47;12.80;;;8.70;99.90;;;;;;5075399;28;20547;-80
2021/11/05 06:05:13;;;;;;;16.70;14.60;;;8.70;99.90;;;;;;5075336;28;20849;-81
2021/11/05 06:07:40;;;;;;;16.77;13.67;;;8.70;99.90;;;;;;5075471;28;20491;-80
2021/11/05 06:10:08;;;;;;;23.50;14.57;;;8.70;99.90;;;;;;5075161;28;20475;-81
2021/11/05 06:12:35;;;;;;;21.03;15.33;;;8.70;99.90;;;;;;5072526;28;20475;-81
2021/11/05 06:15:02;;;;;;;23.80;18.67;;;8.70;99.90;;;;;;5074821;28;20483;-81
2021/11/05 06:17:28;;;;;;;21.83;15.50;;;8.70;99.90;;;;;;5074428;28;20493;-86
2021/11/05 06:19:55;;;;;;;18.70;15.33;;;8.70;99.90;;;;;;5074311;28;20796;-86
2021/11/05 06:22:23;;;;;;;21.53;15.80;;;8.70;99.90;;;;;;5074871;28;20471;-80
2021/11/05 06:24:49;;;;;;;21.00;15.33;;;8.70;99.90;;;;;;5075370;28;20479;-80
2021/11/05 06:27:16;;;;;;;24.60;15.70;;;8.70;99.90;;;;;;5074840;28;20560;-79
2021/11/05 06:29:43;;;;;;;21.40;15.80;;;8.70;99.90;;;;;;5075337;28;20546;-81
2021/11/05 06:32:10;;;;;;;18.73;15.60;;;8.70;99.90;;;;;;5075008;28;20448;-82
2021/11/05 06:34:37;;;;;;;18.80;15.83;;;8.80;99.90;;;;;;5075167;28;20483;-89
2021/11/05 06:37:03;;;;;;;21.13;16.47;;;8.80;99.90;;;;;;5075667;28;20536;-82
2021/11/05 06:39:31;;;;;;;19.87;15.70;;;8.80;99.90;;;;;;5074874;28;20532;-83
2021/11/05 06:41:58;;;;;;;21.03;15.60;;;8.80;99.90;;;;;;5074824;28;20555;-82
2021/11/05 06:44:25;;;;;;;19.63;14.90;;;8.80;99.90;;;;;;5074939;28;20454;-82
2021/11/05 06:46:52;;;;;;;18.03;15.10;;;8.80;99.90;;;;;;5074854;28;20530;-82
2021/11/05 06:49:18;;;;;;;20.03;16.67;;;8.80;99.90;;;;;;5074934;28;20861;-82
2021/11/05 06:51:45;;;;;;;20.50;15.13;;;8.80;99.90;;;;;;5074941;28;20485;-82
2021/11/05 06:54:14;;;;;;;18.90;15.20;;;8.90;99.90;;;;;;5073454;28;20861;-83
2021/11/05 06:56:42;;;;;;;17.20;14.07;;;9.00;99.90;;;;;;5074294;28;20471;-82
2021/11/05 06:59:08;;;;;;;17.93;13.90;;;9.00;99.90;;;;;;5074702;28;20453;-82
2021/11/05 07:01:35;;;;;;;14.70;12.60;;;9.00;99.90;;;;;;5074325;28;20515;-82
2021/11/05 07:04:01;;;;;;;17.50;13.90;;;9.00;99.90;;;;;;5074591;28;20522;-82
2021/11/05 07:06:28;;;;;;;18.57;14.30;;;9.00;99.90;;;;;;5074645;28;20501;-81
2021/11/05 07:08:54;;;;;;;18.40;14.50;;;9.10;99.90;;;;;;5074793;28;20455;-79
2021/11/05 07:11:21;;;;;;;17.60;12.13;;;9.10;99.90;;;;;;5074667;28;20455;-82
2021/11/05 07:13:49;;;;;;;15.80;13.33;;;9.10;99.90;;;;;;5073930;28;20494;-81
2021/11/05 07:16:16;;;;;;;20.57;14.30;;;9.10;99.90;;;;;;5074362;28;20879;-82
2021/11/05 07:18:42;;;;;;;19.13;14.93;;;9.10;99.90;;;;;;5074242;28;20792;-81
2021/11/05 07:21:11;;;;;;;18.57;14.50;;;9.10;99.90;;;;;;5072860;28;20664;-82
2021/11/05 07:23:38;;;;;;;17.10;13.20;;;9.20;99.90;;;;;;5072562;28;20463;-82
2021/11/05 07:26:07;;;;;;;17.90;14.17;;;9.20;99.90;;;;;;5072483;28;20472;-82
2021/11/05 07:28:33;;;;;;;15.63;12.50;;;9.20;99.90;;;;;;5072294;28;20479;-81
2021/11/05 07:31:02;;;;;;;16.40;13.07;;;9.20;99.90;;;;;;5072347;28;20541;-81
2021/11/05 07:33:29;;;;;;;17.53;12.20;;;9.20;99.90;;;;;;5072474;28;20455;-79
2021/11/05 07:35:57;;;;;;;14.10;12.13;;;9.20;99.90;;;;;;5070572;28;20880;-81
2021/11/05 07:38:23;;;;;;;19.13;12.23;;;9.20;99.90;;;;;;5072334;28;20479;-80
2021/11/05 07:40:50;;;;;;;16.03;12.43;;;9.20;99.90;;;;;;5072075;28;20570;-80
2021/11/05 07:43:16;;;;;;;17.30;12.73;;;9.30;99.90;;;;;;5071994;28;20483;-80
2021/11/05 07:45:43;;;;;;;16.97;12.40;;;9.30;99.90;;;;;;5072152;28;20501;-82
2021/11/05 07:48:11;;;;;;;13.57;11.60;;;9.30;99.90;;;;;;5072198;28;20483;-82
2021/11/05 07:50:38;;;;;;;15.87;10.97;;;9.30;99.90;;;;;;5072353;28;20961;-80
2021/11/05 07:53:06;;;;;;;15.77;11.57;;;9.30;99.90;;;;;;5072047;28;20494;-82
2021/11/05 07:55:33;;;;;;;22.03;13.63;;;9.40;99.90;;;;;;5072055;28;20968;-82
2021/11/05 07:58:00;;;;;;;13.83;11.50;;;9.40;99.90;;;;;;5072203;28;20459;-83
2021/11/05 08:00:27;;;;;;;17.37;12.50;;;9.40;99.90;;;;;;5071919;28;21426;-81
2021/11/05 08:02:54;;;;;;;19.87;13.77;;;9.40;99.90;;;;;;5071826;28;20974;-81
2021/11/05 08:05:22;;;;;;;16.07;11.60;;;9.40;99.90;;;;;;5071887;28;20537;-81
2021/11/05 08:07:48;;;;;;;14.67;12.30;;;9.50;99.90;;;;;;5069875;28;20549;-81
2021/11/05 08:10:20;;;;;;;20.77;12.63;;;9.50;99.90;;;;;;5071603;28;20452;-81
2021/11/05 08:12:48;;;;;;;20.00;12.53;;;9.50;99.90;;;;;;5071812;28;20505;-82
2021/11/05 08:15:15;;;;;;;16.90;12.33;;;9.50;99.90;;;;;;5072260;28;20846;-81
2021/11/05 08:17:43;;;;;;;16.90;11.83;;;9.50;99.90;;;;;;5071695;28;20455;-81
2021/11/05 08:20:10;;;;;;;15.90;11.07;;;9.60;99.90;;;;;;5071674;28;20479;-82
2021/11/05 08:22:39;;;;;;;18.53;10.73;;;9.60;99.90;;;;;;5072470;28;20487;-84
2021/11/05 08:25:06;;;;;;;13.97;11.20;;;9.60;99.90;;;;;;5072565;28;20478;-84
2021/11/05 08:27:35;;;;;;;18.83;12.13;;;9.60;99.90;;;;;;5073435;28;20443;-79
2021/11/05 08:30:01;;;;;;;18.77;11.83;;;9.70;99.90;;;;;;5072923;28;20447;-78
2021/11/05 08:32:28;;;;;;;17.90;11.33;;;9.70;99.90;;;;;;5073102;28;20496;-78
2021/11/05 08:34:55;;;;;;;15.10;9.77;;;9.80;99.90;;;;;;5073043;28;20514;-80
2021/11/05 08:37:21;;;;;;;14.57;10.87;;;9.80;99.90;;;;;;5073106;28;20448;-78
2021/11/05 08:39:49;;;;;;;15.40;10.70;;;9.80;99.90;;;;;;5072728;28;21009;-78
2021/11/05 08:42:16;;;;;;;12.20;10.90;;;9.80;99.90;;;;;;5072467;28;20538;-78
2021/11/05 08:44:42;;;;;;;11.23;9.97;;;9.80;99.90;;;;;;5073288;28;20479;-78
2021/11/05 08:47:09;;;;;;;12.37;10.50;;;9.80;99.90;;;;;;5073228;28;20485;-78
2021/11/05 08:49:35;;;;;;;17.63;10.03;;;9.90;99.90;;;;;;5072692;28;21033;-78
2021/11/05 08:52:02;;;;;;;12.23;10.03;;;9.90;99.90;;;;;;5072700;28;20534;-78
2021/11/05 08:54:28;;;;;;;15.20;10.90;;;10.00;99.90;;;;;;5072725;28;20530;-78
2021/11/05 08:56:56;;;;;;;10.43;9.03;;;10.10;99.90;;;;;;5073070;28;20476;-78
2021/11/05 08:59:25;;;;;;;11.27;9.27;;;10.10;99.90;;;;;;5072683;28;20479;-78
2021/11/05 09:01:53;;;;;;;12.20;9.50;;;10.20;99.90;;;;;;5072598;28;20570;-77
2021/11/05 09:04:20;;;;;;;13.80;9.30;;;10.20;99.90;;;;;;5072561;28;20485;-77
2021/11/05 09:06:47;;;;;;;10.20;8.90;;;10.20;99.90;;;;;;5072707;28;20483;-78
2021/11/05 09:09:15;;;;;;;13.17;9.30;;;10.30;99.90;;;;;;5072643;28;20447;-80
2021/11/05 09:11:42;;;;;;;16.23;9.90;;;10.40;99.90;;;;;;5072506;28;21022;-78
2021/11/05 09:14:10;;;;;;;10.90;9.20;;;10.40;99.90;;;;;;5072683;28;20539;-79
2021/11/05 09:16:36;;;;;;;13.33;9.07;;;10.40;99.90;;;;;;5068414;28;20912;-78
2021/11/05 09:19:03;;;;;;;10.40;9.30;;;10.30;99.90;;;;;;5071973;28;20866;-78
2021/11/05 09:21:32;;;;;;;13.63;8.03;;;10.30;99.90;;;;;;5069901;28;20479;-78
2021/11/05 09:23:59;;;;;;;13.97;8.50;;;10.30;99.90;;;;;;5071305;28;20939;-78
2021/11/05 09:26:26;;;;;;;12.87;8.63;;;10.40;99.90;;;;;;5071942;28;20566;-78
2021/11/05 09:28:53;;;;;;;9.50;8.43;;;10.40;99.90;;;;;;5071881;28;20444;-78
2021/11/05 09:31:21;;;;;;;12.40;7.97;;;10.40;99.90;;;;;;5070988;28;20856;-78
2021/11/05 09:33:48;;;;;;;17.03;8.37;;;10.50;99.90;;;;;;5069581;28;20526;-78
2021/11/05 09:36:16;;;;;;;10.27;8.70;;;10.50;99.90;;;;;;5070922;28;20522;-76
2021/11/05 09:38:43;;;;;;;7.93;7.00;;;10.50;99.90;;;;;;5068666;28;20885;-78
2021/11/05 09:41:10;;;;;;;10.47;7.47;;;10.60;99.90;;;;;;5070459;28;20479;-78
2021/11/05 09:43:41;;;;;;;8.40;7.60;;;10.60;99.90;;;;;;5071172;28;20482;-78
2021/11/05 09:46:08;;;;;;;8.40;6.80;;;10.70;99.90;;;;;;5071651;28;20842;-79
2021/11/05 09:48:38;;;;;;;9.00;7.57;;;10.80;99.90;;;;;;5071980;28;20471;-78
2021/11/05 09:51:05;;;;;;;8.70;6.10;;;10.80;99.90;;;;;;5072375;28;20444;-77
2021/11/05 09:53:35;;;;;;;7.43;6.73;;;10.80;99.90;;;;;;5074161;28;20530;-78
2021/11/05 09:56:03;;;;;;;8.27;6.20;;;10.90;99.90;;;;;;5075464;28;20493;-78
2021/11/05 09:58:30;;;;;;;7.90;6.00;;;10.90;99.90;;;;;;5073953;28;20530;-78
2021/11/05 10:00:57;;;;;;;7.17;6.50;;;10.80;99.90;;;;;;5075066;28;20506;-77
2021/11/05 10:03:24;;;;;;;7.33;6.57;;;10.80;99.90;;;;;;5075464;28;20541;-77
2021/11/05 10:05:54;;;;;;;11.27;8.30;;;10.80;99.90;;;;;;5075352;28;20855;-78
2021/11/05 10:08:27;;;;;;;7.73;6.60;;;10.70;99.90;;;;;;5075292;28;20498;-78
2021/11/05 10:10:53;;;;;;;11.23;7.90;;;10.70;99.90;;;;;;5078052;28;20555;-78
2021/11/05 10:13:23;;;;;;;7.97;7.20;;;10.80;99.90;;;;;;5075209;28;20439;-78
2021/11/05 10:15:51;;;;;;;14.93;6.97;;;10.90;99.90;;;;;;5074930;28;20527;-78
2021/11/05 10:18:20;;;;;;;7.23;6.47;;;10.90;99.90;;;;;;5075029;28;20585;-78
2021/11/05 10:20:50;;;;;;;8.20;6.97;;;11.00;99.90;;;;;;5074890;28;20550;-78
2021/11/05 10:23:18;;;;;;;8.20;6.47;;;11.00;99.90;;;;;;5075019;28;20483;-78
2021/11/05 10:25:48;;;;;;;8.97;6.90;;;11.10;99.90;;;;;;5074440;28;20561;-78
2021/11/05 10:28:17;;;;;;;7.97;6.97;;;11.10;99.90;;;;;;5074091;28;20482;-78
2021/11/05 10:30:57;;;;;;;8.03;6.70;;;11.00;99.90;;;;;;5073315;28;20510;-78
2021/11/05 10:33:28;;;;;;;7.73;6.77;;;11.00;99.90;;;;;;5074642;28;20530;-78
2021/11/05 10:35:56;;;;;;;7.80;6.23;;;11.00;99.90;;;;;;5074591;28;20472;-78
2021/11/05 10:38:24;;;;;;;11.20;7.67;;;11.00;99.90;;;;;;5074774;28;20878;-78
2021/11/05 10:40:52;;;;;;;8.30;7.20;;;11.00;99.90;;;;;;5074667;28;20562;-78
2021/11/05 10:43:31;;;;;;;7.63;6.70;;;11.00;99.90;;;;;;5074737;28;20451;-78
2021/11/05 10:45:58;;;;;;;10.67;6.57;;;11.00;99.90;;;;;;5074671;28;20448;-78
2021/11/05 10:48:27;;;;;;;7.10;6.40;;;11.00;99.90;;;;;;5078283;28;20545;-78
2021/11/05 10:50:56;;;;;;;5.07;4.67;;;11.00;99.90;;;;;;5083669;28;20452;-78
2021/11/05 10:53:27;;;;;;;5.50;4.20;;;11.10;99.90;;;;;;5074556;28;20810;-78
2021/11/05 10:55:56;;;;;;;4.17;3.77;;;11.10;99.90;;;;;;5074370;28;20448;-79
2021/11/05 10:58:26;;;;;;;5.10;3.70;;;11.20;99.90;;;;;;5074346;28;20509;-78
2021/11/05 11:00:57;;;;;;;4.87;3.93;;;11.30;99.90;;;;;;5074016;28;20554;-77
2021/11/05 11:03:30;;;;;;;5.10;3.60;;;11.30;99.90;;;;;;5074116;28;20881;-79
2021/11/05 11:05:58;;;;;;;4.53;4.13;;;11.40;99.90;;;;;;5073780;28;20479;-78
2021/11/05 11:08:28;;;;;;;7.50;4.07;;;11.50;99.90;;;;;;5074262;28;20444;-78
2021/11/05 11:10:57;;;;;;;8.87;4.47;;;11.50;99.90;;;;;;5074148;28;20792;-78
2021/11/05 11:13:28;;;;;;;4.07;3.40;;;11.60;99.90;;;;;;5073948;28;20568;-78
2021/11/05 11:15:55;;;;;;;6.03;4.30;;;11.70;99.90;;;;;;5073740;28;20471;-78
2021/11/05 11:18:22;;;;;;;5.03;4.30;;;11.70;99.90;;;;;;5074046;28;20493;-78
2021/11/05 11:20:49;;;;;;;6.10;4.70;;;11.70;99.90;;;;;;5073776;28;20475;-78
2021/11/05 11:23:15;;;;;;;5.73;5.03;;;11.70;99.90;;;;;;5073793;28;20985;-78
2021/11/05 11:25:44;;;;;;;7.00;4.80;;;11.70;99.90;;;;;;5073435;28;20482;-78
2021/11/05 11:28:11;;;;;;;5.03;4.60;;;11.80;99.90;;;;;;5073670;28;20849;-78
2021/11/05 11:30:38;;;;;;;5.20;4.80;;;11.80;99.90;;;;;;5073787;28;20451;-78
2021/11/05 11:33:05;;;;;;;5.73;4.53;;;11.80;99.90;;;;;;5073728;28;20497;-77
2021/11/05 11:35:32;;;;;;;6.10;3.87;;;11.70;99.90;;;;;;5073761;28;20547;-78
2021/11/05 11:37:59;;;;;;;4.33;3.90;;;11.70;99.90;;;;;;5073493;28;20471;-78
2021/11/05 11:40:26;;;;;;;5.23;4.83;;;11.60;99.90;;;;;;5073478;28;20534;-78
2021/11/05 11:42:57;;;;;;;10.90;5.73;;;11.50;99.90;;;;;;5073122;28;20479;-78
2021/11/05 11:45:23;;;;;;;5.70;4.63;;;11.50;99.90;;;;;;5073523;28;20947;-78
2021/11/05 11:47:54;;;;;;;6.10;4.57;;;11.50;99.90;;;;;;5073285;28;20440;-78
2021/11/05 11:50:23;;;;;;;8.10;5.20;;;11.40;99.90;;;;;;5073515;28;20444;-78
2021/11/05 11:52:59;;;;;;;6.67;4.70;;;11.40;99.90;;;;;;5079719;28;20455;-78
2021/11/05 11:55:26;;;;;;;6.07;5.47;;;11.40;99.90;;;;;;5073211;28;20475;-78
2021/11/05 11:58:17;;;;;;;6.30;5.67;;;11.40;99.90;;;;;;5073165;28;20490;-78
2021/11/05 12:00:47;;;;;;;6.07;5.23;;;11.50;99.90;;;;;;5070846;28;20444;-78
2021/11/05 12:03:15;;;;;;;6.20;5.07;;;11.50;99.90;;;;;;5071662;28;20561;-78
2021/11/05 12:05:44;;;;;;;6.63;5.10;;;11.40;99.90;;;;;;5071840;28;20443;-78
2021/11/05 12:08:20;;;;;;;8.43;5.20;;;11.30;99.90;;;;;;5072343;28;20527;-78
2021/11/05 12:10:50;;;;;;;5.33;4.83;;;11.30;99.90;;;;;;5072250;28;20499;-78
2021/11/05 12:13:47;;;;;;;8.70;4.83;;;11.30;99.90;;;;;;5072322;28;20865;-78
2021/11/05 12:16:21;;;;;;;6.73;4.50;;;11.40;99.90;;;;;;5056926;28;20444;-78
2021/11/05 12:19:07;;;;;;;7.03;5.13;;;11.40;99.90;;;;;;5072685;28;20483;-78
2021/11/05 12:21:37;;;;;;;6.30;5.10;;;11.50;99.90;;;;;;5072507;28;20554;-78
2021/11/05 12:24:26;;;;;;;6.20;5.60;;;11.50;99.90;;;;;;5056551;28;20444;-78
2021/11/05 12:26:56;;;;;;;8.20;4.90;;;11.50;99.90;;;;;;5072486;28;20545;-78
2021/11/05 12:29:52;;;;;;;5.00;4.27;;;11.60;99.90;;;;;;5072810;28;20479;-78
2021/11/05 12:32:33;;;;;;;4.87;4.37;;;11.60;99.90;;;;;;5058544;28;20534;-78
2021/11/05 12:35:31;;;;;;;3.93;3.63;;;11.70;99.90;;;;;;5072568;28;20447;-78
2021/11/05 12:38:08;;;;;;;5.13;3.93;;;11.70;99.90;;;;;;5010394;28;20446;-78
2021/11/05 12:40:47;;;;;;;6.60;5.00;;;11.70;99.90;;;;;;5062570;28;20530;-78
2021/11/05 12:43:40;;;;;;;4.20;3.90;;;11.70;99.90;;;;;;5072016;28;20470;-78
2021/11/05 12:46:12;;;;;;;4.67;4.27;;;11.70;99.90;;;;;;5056765;28;20530;-82
2021/11/05 12:48:48;;;;;;;6.60;4.20;;;11.60;99.90;;;;;;5072119;28;20954;-82
2021/11/05 12:51:17;;;;;;;4.83;3.80;;;11.70;99.90;;;;;;5072118;28;20577;-82
2021/11/05 12:53:44;;;;;;;6.90;4.13;;;11.70;99.90;;;;;;5069309;28;20512;-82